sensor_id;sensor_type;location;lat;lon;timestamp;temperature;humidity
37998;DHT22;24079;51.824;4.682;2022-09-03T00:02:21;20.90;99.90
37998;DHT22;24079;51.824;4.682;2022-09-03T00:11:18;20.90;99.90
37998;DHT22;24079;51.824;4.682;2022-09-03T00:13:56;20.90;99.90
37998;DHT22;24079;51.824;4.682;2022-09-03T00:16:27;20.90;99.90
37998;DHT22;24079;51.824;4.682;2022-09-03T00:19:00;20.80;99.90
37998;DHT22;24079;51.824;4.682;2022-09-03T00:21:37;20.90;99.90
37998;DHT22;24079;51.824;4.682;2022-09-03T00:24:06;20.90;99.90
37998;DHT22;24079;51.824;4.682;2022-09-03T00:26:34;20.80;99.90
37998;DHT22;24079;51.824;4.682;2022-09-03T00:29:18;20.80;99.90
37998;DHT22;24079;51.824;4.682;2022-09-03T00:31:52;20.80;99.90
37998;DHT22;24079;51.824;4.682;2022-09-03T00:34:35;20.70;99.90
37998;DHT22;24079;51.824;4.682;2022-09-03T00:37:03;20.70;99.90
37998;DHT22;24079;51.824;4.682;2022-09-03T00:39:29;20.70;99.90
37998;DHT22;24079;51.824;4.682;2022-09-03T00:42:06;20.70;99.90
37998;DHT22;24079;51.824;4.682;2022-09-03T00:44:48;20.70;99.90
37998;DHT22;24079;51.824;4.682;2022-09-03T00:53:00;20.50;99.90
37998;DHT22;24079;51.824;4.682;2022-09-03T00:55:51;20.50;99.90
37998;DHT22;24079;51.824;4.682;2022-09-03T00:58:57;20.50;99.90
37998;DHT22;24079;51.824;4.682;2022-09-03T01:04:05;20.30;99.90
37998;DHT22;24079;51.824;4.682;2022-09-03T01:09:16;20.30;99.90
37998;DHT22;24079;51.824;4.682;2022-09-03T01:25:31;20.00;99.90
37998;DHT22;24079;51.824;4.682;2022-09-03T01:30:42;19.90;99.90
37998;DHT22;24079;51.824;4.682;2022-09-03T01:33:39;19.90;99.90
37998;DHT22;24079;51.824;4.682;2022-09-03T01:39:02;19.80;99.90
37998;DHT22;24079;51.824;4.682;2022-09-03T01:42:15;19.70;99.90
37998;DHT22;24079;51.824;4.682;2022-09-03T01:50:29;19.70;99.90
37998;DHT22;24079;51.824;4.682;2022-09-03T01:56:26;19.60;99.90
37998;DHT22;24079;51.824;4.682;2022-09-03T02:01:48;19.50;99.90
37998;DHT22;24079;51.824;4.682;2022-09-03T02:04:18;19.50;99.90
37998;DHT22;24079;51.824;4.682;2022-09-03T02:06:45;19.40;99.90
37998;DHT22;24079;51.824;4.682;2022-09-03T02:09:12;19.40;99.90
37998;DHT22;24079;51.824;4.682;2022-09-03T02:11:38;19.40;99.90
37998;DHT22;24079;51.824;4.682;2022-09-03T02:14:05;19.30;99.90
37998;DHT22;24079;51.824;4.682;2022-09-03T02:16:32;19.40;99.90
37998;DHT22;24079;51.824;4.682;2022-09-03T02:19:10;19.30;99.90
37998;DHT22;24079;51.824;4.682;2022-09-03T02:21:41;19.30;99.90
37998;DHT22;24079;51.824;4.682;2022-09-03T02:24:08;19.30;99.90
37998;DHT22;24079;51.824;4.682;2022-09-03T02:26:34;19.30;99.90
37998;DHT22;24079;51.824;4.682;2022-09-03T02:29:02;19.30;99.90
37998;DHT22;24079;51.824;4.682;2022-09-03T02:31:27;19.30;99.90
37998;DHT22;24079;51.824;4.682;2022-09-03T02:33:55;19.20;99.90
37998;DHT22;24079;51.824;4.682;2022-09-03T02:36:26;19.10;99.90
37998;DHT22;24079;51.824;4.682;2022-09-03T02:38:52;19.10;99.90
37998;DHT22;24079;51.824;4.682;2022-09-03T02:41:18;19.10;99.90
37998;DHT22;24079;51.824;4.682;2022-09-03T02:43:57;19.10;99.90
37998;DHT22;24079;51.824;4.682;2022-09-03T02:46:26;19.00;99.90
37998;DHT22;24079;51.824;4.682;2022-09-03T02:48:54;19.00;99.90
37998;DHT22;24079;51.824;4.682;2022-09-03T02:51:20;18.90;99.90
37998;DHT22;24079;51.824;4.682;2022-09-03T02:53:46;18.90;99.90
37998;DHT22;24079;51.824;4.682;2022-09-03T02:56:11;18.90;99.90
37998;DHT22;24079;51.824;4.682;2022-09-03T02:58:37;18.80;99.90
37998;DHT22;24079;51.824;4.682;2022-09-03T03:01:04;18.80;99.90
37998;DHT22;24079;51.824;4.682;2022-09-03T03:03:29;18.70;99.90
37998;DHT22;24079;51.824;4.682;2022-09-03T03:05:57;18.70;99.90
37998;DHT22;24079;51.824;4.682;2022-09-03T03:08:26;18.70;99.90
37998;DHT22;24079;51.824;4.682;2022-09-03T03:10:57;18.60;99.90
37998;DHT22;24079;51.824;4.682;2022-09-03T03:13:25;18.60;99.90
37998;DHT22;24079;51.824;4.682;2022-09-03T03:15:54;18.60;99.90
37998;DHT22;24079;51.824;4.682;2022-09-03T03:18:20;18.60;99.90
37998;DHT22;24079;51.824;4.682;2022-09-03T03:20:45;18.50;99.90
37998;DHT22;24079;51.824;4.682;2022-09-03T03:23:12;18.40;99.90
37998;DHT22;24079;51.824;4.682;2022-09-03T03:25:39;18.40;99.90
37998;DHT22;24079;51.824;4.682;2022-09-03T03:28:05;18.50;99.90
37998;DHT22;24079;51.824;4.682;2022-09-03T03:30:32;18.40;99.90
37998;DHT22;24079;51.824;4.682;2022-09-03T03:32:58;18.40;99.90
37998;DHT22;24079;51.824;4.682;2022-09-03T03:35:23;18.40;99.90
37998;DHT22;24079;51.824;4.682;2022-09-03T03:37:49;18.30;99.90
37998;DHT22;24079;51.824;4.682;2022-09-03T03:40:15;18.30;99.90
37998;DHT22;24079;51.824;4.682;2022-09-03T03:42:41;18.30;99.90
37998;DHT22;24079;51.824;4.682;2022-09-03T03:45:08;18.30;99.90
37998;DHT22;24079;51.824;4.682;2022-09-03T03:47:34;18.30;99.90
37998;DHT22;24079;51.824;4.682;2022-09-03T03:50:00;18.30;99.90
37998;DHT22;24079;51.824;4.682;2022-09-03T03:52:26;18.20;99.90
37998;DHT22;24079;51.824;4.682;2022-09-03T03:54:52;18.20;99.90
37998;DHT22;24079;51.824;4.682;2022-09-03T03:57:19;18.20;99.90
37998;DHT22;24079;51.824;4.682;2022-09-03T03:59:46;18.10;99.90
37998;DHT22;24079;51.824;4.682;2022-09-03T04:02:12;18.20;99.90
37998;DHT22;24079;51.824;4.682;2022-09-03T04:04:37;18.20;99.90
37998;DHT22;24079;51.824;4.682;2022-09-03T04:07:03;18.20;99.90
37998;DHT22;24079;51.824;4.682;2022-09-03T04:09:28;18.20;99.90
37998;DHT22;24079;51.824;4.682;2022-09-03T04:11:54;18.10;99.90
37998;DHT22;24079;51.824;4.682;2022-09-03T04:14:25;18.10;99.90
37998;DHT22;24079;51.824;4.682;2022-09-03T04:16:52;18.00;99.90
37998;DHT22;24079;51.824;4.682;2022-09-03T04:19:17;18.00;99.90
37998;DHT22;24079;51.824;4.682;2022-09-03T04:21:44;18.00;99.90
37998;DHT22;24079;51.824;4.682;2022-09-03T04:24:10;18.00;99.90
37998;DHT22;24079;51.824;4.682;2022-09-03T04:26:36;17.90;99.90
37998;DHT22;24079;51.824;4.682;2022-09-03T04:29:06;18.00;99.90
37998;DHT22;24079;51.824;4.682;2022-09-03T04:31:33;18.00;99.90
37998;DHT22;24079;51.824;4.682;2022-09-03T04:34:00;18.00;99.90
37998;DHT22;24079;51.824;4.682;2022-09-03T04:36:27;17.90;99.90
37998;DHT22;24079;51.824;4.682;2022-09-03T04:38:54;17.90;99.90
37998;DHT22;24079;51.824;4.682;2022-09-03T04:41:23;17.90;99.90
37998;DHT22;24079;51.824;4.682;2022-09-03T04:43:50;17.80;99.90
37998;DHT22;24079;51.824;4.682;2022-09-03T04:46:17;17.80;99.90
37998;DHT22;24079;51.824;4.682;2022-09-03T04:48:46;17.90;99.90
37998;DHT22;24079;51.824;4.682;2022-09-03T04:51:14;17.90;99.90
37998;DHT22;24079;51.824;4.682;2022-09-03T04:53:42;17.80;99.90
37998;DHT22;24079;51.824;4.682;2022-09-03T04:56:17;17.80;99.90
37998;DHT22;24079;51.824;4.682;2022-09-03T04:58:43;17.80;99.90
37998;DHT22;24079;51.824;4.682;2022-09-03T05:01:17;17.80;99.90
37998;DHT22;24079;51.824;4.682;2022-09-03T05:03:43;17.80;99.90
37998;DHT22;24079;51.824;4.682;2022-09-03T05:06:09;17.80;99.90
37998;DHT22;24079;51.824;4.682;2022-09-03T05:08:35;17.80;99.90
37998;DHT22;24079;51.824;4.682;2022-09-03T05:11:05;17.80;99.90
37998;DHT22;24079;51.824;4.682;2022-09-03T05:13:32;17.90;99.90
37998;DHT22;24079;51.824;4.682;2022-09-03T05:18:25;17.90;99.90
37998;DHT22;24079;51.824;4.682;2022-09-03T05:21:06;17.90;99.90
37998;DHT22;24079;51.824;4.682;2022-09-03T05:23:36;17.80;99.90
37998;DHT22;24079;51.824;4.682;2022-09-03T05:26:04;17.80;99.90
37998;DHT22;24079;51.824;4.682;2022-09-03T05:28:34;17.80;99.90
37998;DHT22;24079;51.824;4.682;2022-09-03T05:31:03;17.80;99.90
37998;DHT22;24079;51.824;4.682;2022-09-03T05:33:28;17.80;99.90
37998;DHT22;24079;51.824;4.682;2022-09-03T05:36:03;17.80;99.90
37998;DHT22;24079;51.824;4.682;2022-09-03T05:38:29;17.90;99.90
37998;DHT22;24079;51.824;4.682;2022-09-03T05:41:03;17.90;99.90
37998;DHT22;24079;51.824;4.682;2022-09-03T05:43:30;17.90;99.90
37998;DHT22;24079;51.824;4.682;2022-09-03T05:45:59;17.80;99.90
37998;DHT22;24079;51.824;4.682;2022-09-03T05:48:28;17.80;99.90
37998;DHT22;24079;51.824;4.682;2022-09-03T05:51:04;17.80;99.90
37998;DHT22;24079;51.824;4.682;2022-09-03T05:53:33;17.90;99.90
37998;DHT22;24079;51.824;4.682;2022-09-03T05:56:04;17.90;99.90
37998;DHT22;24079;51.824;4.682;2022-09-03T05:58:31;18.00;99.90
37998;DHT22;24079;51.824;4.682;2022-09-03T06:00:57;18.10;99.90
37998;DHT22;24079;51.824;4.682;2022-09-03T06:03:23;18.10;99.90
37998;DHT22;24079;51.824;4.682;2022-09-03T06:05:53;18.20;99.90
37998;DHT22;24079;51.824;4.682;2022-09-03T06:08:19;18.20;99.90
37998;DHT22;24079;51.824;4.682;2022-09-03T06:10:45;18.20;99.90
37998;DHT22;24079;51.824;4.682;2022-09-03T06:13:11;18.30;99.90
37998;DHT22;24079;51.824;4.682;2022-09-03T06:15:37;18.30;99.90
37998;DHT22;24079;51.824;4.682;2022-09-03T06:18:03;18.40;99.90
37998;DHT22;24079;51.824;4.682;2022-09-03T06:20:28;18.40;99.90
37998;DHT22;24079;51.824;4.682;2022-09-03T06:22:54;18.50;99.90
37998;DHT22;24079;51.824;4.682;2022-09-03T06:25:20;18.50;99.90
37998;DHT22;24079;51.824;4.682;2022-09-03T06:27:46;18.80;99.90
37998;DHT22;24079;51.824;4.682;2022-09-03T06:30:12;19.30;99.90
37998;DHT22;24079;51.824;4.682;2022-09-03T06:32:48;19.50;99.90
37998;DHT22;24079;51.824;4.682;2022-09-03T06:35:17;19.70;99.90
37998;DHT22;24079;51.824;4.682;2022-09-03T06:37:42;19.90;99.90
37998;DHT22;24079;51.824;4.682;2022-09-03T06:40:09;19.90;99.90
37998;DHT22;24079;51.824;4.682;2022-09-03T06:42:40;19.90;99.90
37998;DHT22;24079;51.824;4.682;2022-09-03T06:45:08;20.20;99.90
37998;DHT22;24079;51.824;4.682;2022-09-03T06:47:34;20.70;99.90
37998;DHT22;24079;51.824;4.682;2022-09-03T06:50:00;21.00;99.90
37998;DHT22;24079;51.824;4.682;2022-09-03T06:52:27;21.00;99.90
37998;DHT22;24079;51.824;4.682;2022-09-03T06:54:52;20.90;99.90
37998;DHT22;24079;51.824;4.682;2022-09-03T06:57:18;20.80;99.90
37998;DHT22;24079;51.824;4.682;2022-09-03T06:59:43;20.80;99.90
37998;DHT22;24079;51.824;4.682;2022-09-03T07:02:10;20.80;99.90
37998;DHT22;24079;51.824;4.682;2022-09-03T07:04:35;20.70;99.90
37998;DHT22;24079;51.824;4.682;2022-09-03T07:07:01;20.80;99.90
37998;DHT22;24079;51.824;4.682;2022-09-03T07:09:26;21.00;99.90
37998;DHT22;24079;51.824;4.682;2022-09-03T07:11:53;21.00;99.90
37998;DHT22;24079;51.824;4.682;2022-09-03T07:14:19;21.00;99.90
37998;DHT22;24079;51.824;4.682;2022-09-03T07:16:47;20.80;99.90
37998;DHT22;24079;51.824;4.682;2022-09-03T07:19:14;20.70;99.90
37998;DHT22;24079;51.824;4.682;2022-09-03T07:21:40;20.60;99.90
37998;DHT22;24079;51.824;4.682;2022-09-03T07:24:06;20.60;99.90
37998;DHT22;24079;51.824;4.682;2022-09-03T07:26:38;20.50;99.90
37998;DHT22;24079;51.824;4.682;2022-09-03T07:29:06;20.40;99.90
37998;DHT22;24079;51.824;4.682;2022-09-03T07:31:38;20.30;99.90
37998;DHT22;24079;51.824;4.682;2022-09-03T07:34:06;20.60;99.90
37998;DHT22;24079;51.824;4.682;2022-09-03T07:36:40;21.00;99.90
37998;DHT22;24079;51.824;4.682;2022-09-03T07:39:07;21.20;99.90
37998;DHT22;24079;51.824;4.682;2022-09-03T07:41:33;21.30;99.90
37998;DHT22;24079;51.824;4.682;2022-09-03T07:43:59;21.90;99.90
37998;DHT22;24079;51.824;4.682;2022-09-03T07:46:31;23.20;99.90
37998;DHT22;24079;51.824;4.682;2022-09-03T07:48:59;24.20;99.90
37998;DHT22;24079;51.824;4.682;2022-09-03T07:51:28;25.00;99.90
37998;DHT22;24079;51.824;4.682;2022-09-03T07:53:59;25.00;99.90
37998;DHT22;24079;51.824;4.682;2022-09-03T07:56:25;25.50;99.90
37998;DHT22;24079;51.824;4.682;2022-09-03T07:58:51;25.50;99.90
37998;DHT22;24079;51.824;4.682;2022-09-03T08:01:20;26.40;99.90
37998;DHT22;24079;51.824;4.682;2022-09-03T08:03:48;27.10;99.90
37998;DHT22;24079;51.824;4.682;2022-09-03T08:06:14;27.60;99.90
37998;DHT22;24079;51.824;4.682;2022-09-03T08:08:41;28.00;99.90
37998;DHT22;24079;51.824;4.682;2022-09-03T08:11:12;28.60;99.90
37998;DHT22;24079;51.824;4.682;2022-09-03T08:13:42;29.10;99.90
37998;DHT22;24079;51.824;4.682;2022-09-03T08:16:10;28.90;99.70
37998;DHT22;24079;51.824;4.682;2022-09-03T08:18:36;29.00;99.20
37998;DHT22;24079;51.824;4.682;2022-09-03T08:21:21;28.80;99.20
37998;DHT22;24079;51.824;4.682;2022-09-03T08:23:49;28.90;98.80
37998;DHT22;24079;51.824;4.682;2022-09-03T08:26:16;28.60;99.40
37998;DHT22;24079;51.824;4.682;2022-09-03T08:28:42;28.60;99.40
37998;DHT22;24079;51.824;4.682;2022-09-03T08:33:42;28.20;99.70
37998;DHT22;24079;51.824;4.682;2022-09-03T08:36:32;27.90;99.40
37998;DHT22;24079;51.824;4.682;2022-09-03T08:38:59;28.10;99.70
37998;DHT22;24079;51.824;4.682;2022-09-03T08:47:15;27.40;99.90
37998;DHT22;24079;51.824;4.682;2022-09-03T08:52:32;27.10;99.90
37998;DHT22;24079;51.824;4.682;2022-09-03T08:55:25;26.90;99.90
37998;DHT22;24079;51.824;4.682;2022-09-03T09:00:22;26.70;99.90
37998;DHT22;24079;51.824;4.682;2022-09-03T09:03:16;26.70;99.90
37998;DHT22;24079;51.824;4.682;2022-09-03T09:06:09;26.70;99.90
37998;DHT22;24079;51.824;4.682;2022-09-03T09:08:45;26.70;99.90
37998;DHT22;24079;51.824;4.682;2022-09-03T09:18:09;27.00;99.90
37998;DHT22;24079;51.824;4.682;2022-09-03T09:22:56;27.00;99.90
37998;DHT22;24079;51.824;4.682;2022-09-03T09:25:24;26.90;99.90
37998;DHT22;24079;51.824;4.682;2022-09-03T09:27:58;26.90;99.90
37998;DHT22;24079;51.824;4.682;2022-09-03T09:30:25;27.00;99.90
37998;DHT22;24079;51.824;4.682;2022-09-03T09:32:51;27.00;99.90
37998;DHT22;24079;51.824;4.682;2022-09-03T09:35:17;27.00;99.90
37998;DHT22;24079;51.824;4.682;2022-09-03T09:37:51;27.00;99.90
37998;DHT22;24079;51.824;4.682;2022-09-03T09:40:30;27.10;99.90
37998;DHT22;24079;51.824;4.682;2022-09-03T09:43:14;27.00;99.90
37998;DHT22;24079;51.824;4.682;2022-09-03T09:45:43;27.30;99.90
37998;DHT22;24079;51.824;4.682;2022-09-03T09:50:39;27.60;99.90
37998;DHT22;24079;51.824;4.682;2022-09-03T09:53:10;27.80;99.90
37998;DHT22;24079;51.824;4.682;2022-09-03T09:55:53;27.70;99.90
37998;DHT22;24079;51.824;4.682;2022-09-03T09:58:21;27.90;99.90
37998;DHT22;24079;51.824;4.682;2022-09-03T10:03:20;27.70;99.90
37998;DHT22;24079;51.824;4.682;2022-09-03T10:06:00;27.70;99.90
37998;DHT22;24079;51.824;4.682;2022-09-03T10:08:47;27.90;99.90
37998;DHT22;24079;51.824;4.682;2022-09-03T10:11:12;27.80;99.90
37998;DHT22;24079;51.824;4.682;2022-09-03T10:13:44;28.00;99.90
37998;DHT22;24079;51.824;4.682;2022-09-03T10:16:32;27.70;99.90
37998;DHT22;24079;51.824;4.682;2022-09-03T10:19:23;27.70;99.90
37998;DHT22;24079;51.824;4.682;2022-09-03T10:22:04;28.00;99.90
37998;DHT22;24079;51.824;4.682;2022-09-03T10:24:58;28.10;99.90
37998;DHT22;24079;51.824;4.682;2022-09-03T10:27:25;28.20;99.80
37998;DHT22;24079;51.824;4.682;2022-09-03T10:29:51;28.40;99.70
37998;DHT22;24079;51.824;4.682;2022-09-03T10:32:30;28.50;99.30
37998;DHT22;24079;51.824;4.682;2022-09-03T10:37:38;28.50;98.20
37998;DHT22;24079;51.824;4.682;2022-09-03T10:43:07;28.30;99.00
37998;DHT22;24079;51.824;4.682;2022-09-03T10:45:36;28.30;99.00
37998;DHT22;24079;51.824;4.682;2022-09-03T10:51:26;28.50;99.70
37998;DHT22;24079;51.824;4.682;2022-09-03T10:54:11;28.60;99.00
37998;DHT22;24079;51.824;4.682;2022-09-03T11:00:07;28.90;99.10
37998;DHT22;24079;51.824;4.682;2022-09-03T11:05:22;29.10;99.00
37998;DHT22;24079;51.824;4.682;2022-09-03T11:08:35;29.10;98.50
37998;DHT22;24079;51.824;4.682;2022-09-03T11:10:46;29.10;98.60
37998;DHT22;24079;51.824;4.682;2022-09-03T11:13:27;29.00;99.10
37998;DHT22;24079;51.824;4.682;2022-09-03T11:16:10;28.80;98.70
37998;DHT22;24079;51.824;4.682;2022-09-03T11:18:42;28.80;98.80
37998;DHT22;24079;51.824;4.682;2022-09-03T11:21:09;28.90;98.90
37998;DHT22;24079;51.824;4.682;2022-09-03T11:23:41;29.10;99.10
37998;DHT22;24079;51.824;4.682;2022-09-03T11:26:12;29.20;99.00
37998;DHT22;24079;51.824;4.682;2022-09-03T11:28:41;29.20;98.60
37998;DHT22;24079;51.824;4.682;2022-09-03T11:36:51;29.70;98.20
37998;DHT22;24079;51.824;4.682;2022-09-03T11:41:59;29.80;97.60
37998;DHT22;24079;51.824;4.682;2022-09-03T11:44:36;29.60;97.60
37998;DHT22;24079;51.824;4.682;2022-09-03T11:47:19;29.40;97.50
37998;DHT22;24079;51.824;4.682;2022-09-03T11:49:48;29.40;98.30
37998;DHT22;24079;51.824;4.682;2022-09-03T11:52:26;29.60;98.30
37998;DHT22;24079;51.824;4.682;2022-09-03T11:54:52;29.60;98.10
37998;DHT22;24079;51.824;4.682;2022-09-03T11:57:31;29.60;98.00
37998;DHT22;24079;51.824;4.682;2022-09-03T12:00:17;29.60;97.90
37998;DHT22;24079;51.824;4.682;2022-09-03T12:03:00;29.50;98.00
37998;DHT22;24079;51.824;4.682;2022-09-03T12:13:53;29.30;97.30
37998;DHT22;24079;51.824;4.682;2022-09-03T12:17:07;29.10;97.90
37998;DHT22;24079;51.824;4.682;2022-09-03T12:22:12;29.40;98.30
37998;DHT22;24079;51.824;4.682;2022-09-03T12:24:39;29.70;97.30
37998;DHT22;24079;51.824;4.682;2022-09-03T12:27:12;29.60;97.30
37998;DHT22;24079;51.824;4.682;2022-09-03T12:29:50;29.50;97.30
37998;DHT22;24079;51.824;4.682;2022-09-03T12:32:25;29.70;97.00
37998;DHT22;24079;51.824;4.682;2022-09-03T12:34:52;29.70;97.00
37998;DHT22;24079;51.824;4.682;2022-09-03T12:37:25;29.70;97.60
37998;DHT22;24079;51.824;4.682;2022-09-03T12:39:55;29.70;97.40
37998;DHT22;24079;51.824;4.682;2022-09-03T12:42:26;29.70;97.10
37998;DHT22;24079;51.824;4.682;2022-09-03T12:44:52;29.50;97.10
37998;DHT22;24079;51.824;4.682;2022-09-03T12:47:21;29.50;97.40
37998;DHT22;24079;51.824;4.682;2022-09-03T12:49:49;29.60;97.40
37998;DHT22;24079;51.824;4.682;2022-09-03T12:52:17;29.50;97.20
37998;DHT22;24079;51.824;4.682;2022-09-03T12:55:31;29.40;97.70
37998;DHT22;24079;51.824;4.682;2022-09-03T13:00:31;29.40;96.40
37998;DHT22;24079;51.824;4.682;2022-09-03T13:03:07;29.50;96.70
37998;DHT22;24079;51.824;4.682;2022-09-03T13:08:07;29.30;96.80
37998;DHT22;24079;51.824;4.682;2022-09-03T13:10:38;29.20;97.20
37998;DHT22;24079;51.824;4.682;2022-09-03T13:21:13;29.20;97.50
37998;DHT22;24079;51.824;4.682;2022-09-03T13:34:49;29.40;97.50
37998;DHT22;24079;51.824;4.682;2022-09-03T13:42:32;29.30;96.60
37998;DHT22;24079;51.824;4.682;2022-09-03T13:51:14;29.50;96.90
37998;DHT22;24079;51.824;4.682;2022-09-03T13:54:03;29.50;96.70
37998;DHT22;24079;51.824;4.682;2022-09-03T13:56:47;29.50;96.50
37998;DHT22;24079;51.824;4.682;2022-09-03T13:59:53;29.30;96.80
37998;DHT22;24079;51.824;4.682;2022-09-03T14:02:22;29.30;95.90
37998;DHT22;24079;51.824;4.682;2022-09-03T14:07:27;29.00;96.10
37998;DHT22;24079;51.824;4.682;2022-09-03T14:10:17;29.10;96.30
37998;DHT22;24079;51.824;4.682;2022-09-03T14:12:49;29.10;96.50
37998;DHT22;24079;51.824;4.682;2022-09-03T14:15:28;29.10;96.30
37998;DHT22;24079;51.824;4.682;2022-09-03T14:18:27;29.00;95.70
37998;DHT22;24079;51.824;4.682;2022-09-03T14:21:24;28.90;95.70
37998;DHT22;24079;51.824;4.682;2022-09-03T14:24:09;28.90;95.90
37998;DHT22;24079;51.824;4.682;2022-09-03T14:26:37;28.80;96.10
37998;DHT22;24079;51.824;4.682;2022-09-03T14:31:50;29.00;96.00
37998;DHT22;24079;51.824;4.682;2022-09-03T14:40:17;29.00;95.70
37998;DHT22;24079;51.824;4.682;2022-09-03T14:45:14;28.90;96.10
37998;DHT22;24079;51.824;4.682;2022-09-03T14:53:41;28.80;95.90
37998;DHT22;24079;51.824;4.682;2022-09-03T15:01:47;28.70;96.40
37998;DHT22;24079;51.824;4.682;2022-09-03T15:10:09;28.60;96.50
37998;DHT22;24079;51.824;4.682;2022-09-03T15:12:44;28.60;96.20
37998;DHT22;24079;51.824;4.682;2022-09-03T15:18:16;28.70;96.00
37998;DHT22;24079;51.824;4.682;2022-09-03T15:20:52;28.70;96.20
37998;DHT22;24079;51.824;4.682;2022-09-03T15:29:00;28.60;96.50
37998;DHT22;24079;51.824;4.682;2022-09-03T15:31:56;28.60;96.40
37998;DHT22;24079;51.824;4.682;2022-09-03T15:34:54;28.60;96.40
37998;DHT22;24079;51.824;4.682;2022-09-03T15:37:29;28.50;97.00
37998;DHT22;24079;51.824;4.682;2022-09-03T15:42:41;28.50;96.50
37998;DHT22;24079;51.824;4.682;2022-09-03T15:45:37;28.50;97.20
37998;DHT22;24079;51.824;4.682;2022-09-03T15:48:20;28.50;96.70
37998;DHT22;24079;51.824;4.682;2022-09-03T15:56:05;28.40;96.60
37998;DHT22;24079;51.824;4.682;2022-09-03T15:58:56;28.30;96.60
37998;DHT22;24079;51.824;4.682;2022-09-03T16:12:35;28.20;96.60
37998;DHT22;24079;51.824;4.682;2022-09-03T16:15:12;28.20;96.50
37998;DHT22;24079;51.824;4.682;2022-09-03T16:20:47;28.10;96.20
37998;DHT22;24079;51.824;4.682;2022-09-03T16:26:02;28.00;96.10
37998;DHT22;24079;51.824;4.682;2022-09-03T16:28:51;28.00;96.00
37998;DHT22;24079;51.824;4.682;2022-09-03T16:31:32;27.90;96.20
37998;DHT22;24079;51.824;4.682;2022-09-03T16:36:58;27.90;96.30
37998;DHT22;24079;51.824;4.682;2022-09-03T16:42:09;27.80;96.80
37998;DHT22;24079;51.824;4.682;2022-09-03T17:02:09;27.50;96.90
37998;DHT22;24079;51.824;4.682;2022-09-03T17:11:06;27.40;97.60
37998;DHT22;24079;51.824;4.682;2022-09-03T17:21:14;27.10;97.60
37998;DHT22;24079;51.824;4.682;2022-09-03T17:26:48;27.00;97.60
37998;DHT22;24079;51.824;4.682;2022-09-03T17:35:07;26.70;98.20
37998;DHT22;24079;51.824;4.682;2022-09-03T17:46:30;26.30;99.00
37998;DHT22;24079;51.824;4.682;2022-09-03T17:49:00;26.30;99.10
37998;DHT22;24079;51.824;4.682;2022-09-03T17:54:40;26.10;99.40
37998;DHT22;24079;51.824;4.682;2022-09-03T18:00:07;26.00;99.80
37998;DHT22;24079;51.824;4.682;2022-09-03T18:02:41;25.90;99.90
37998;DHT22;24079;51.824;4.682;2022-09-03T18:13:47;25.80;99.90
37998;DHT22;24079;51.824;4.682;2022-09-03T18:16:27;25.70;99.90
37998;DHT22;24079;51.824;4.682;2022-09-03T18:19:13;25.60;99.90
37998;DHT22;24079;51.824;4.682;2022-09-03T18:21:46;25.50;99.90
37998;DHT22;24079;51.824;4.682;2022-09-03T18:27:53;25.30;99.90
37998;DHT22;24079;51.824;4.682;2022-09-03T18:30:39;25.20;99.90
37998;DHT22;24079;51.824;4.682;2022-09-03T18:33:24;25.20;99.90
37998;DHT22;24079;51.824;4.682;2022-09-03T18:36:09;25.10;99.90
37998;DHT22;24079;51.824;4.682;2022-09-03T18:56:50;24.60;99.90
37998;DHT22;24079;51.824;4.682;2022-09-03T19:05:59;24.50;99.90
37998;DHT22;24079;51.824;4.682;2022-09-03T19:15:05;24.40;99.90
37998;DHT22;24079;51.824;4.682;2022-09-03T19:18:08;24.30;99.90
37998;DHT22;24079;51.824;4.682;2022-09-03T19:24:16;24.20;99.90
37998;DHT22;24079;51.824;4.682;2022-09-03T19:54:58;23.60;99.90
37998;DHT22;24079;51.824;4.682;2022-09-03T19:57:49;23.50;99.90
37998;DHT22;24079;51.824;4.682;2022-09-03T20:00:35;23.50;99.90
37998;DHT22;24079;51.824;4.682;2022-09-03T20:03:20;23.50;99.90
37998;DHT22;24079;51.824;4.682;2022-09-03T20:06:06;23.50;99.90
37998;DHT22;24079;51.824;4.682;2022-09-03T20:08:50;23.50;99.90
37998;DHT22;24079;51.824;4.682;2022-09-03T20:11:37;23.50;99.90
37998;DHT22;24079;51.824;4.682;2022-09-03T20:14:13;23.50;99.90
37998;DHT22;24079;51.824;4.682;2022-09-03T20:39:40;23.10;99.90
37998;DHT22;24079;51.824;4.682;2022-09-03T20:44:51;23.20;99.90
37998;DHT22;24079;51.824;4.682;2022-09-03T20:50:01;23.20;99.90
37998;DHT22;24079;51.824;4.682;2022-09-03T20:52:56;23.30;99.90
37998;DHT22;24079;51.824;4.682;2022-09-03T20:55:28;23.30;99.90
37998;DHT22;24079;51.824;4.682;2022-09-03T21:00:51;23.40;99.90
37998;DHT22;24079;51.824;4.682;2022-09-03T21:03:27;23.40;99.90
37998;DHT22;24079;51.824;4.682;2022-09-03T21:06:13;23.40;99.90
37998;DHT22;24079;51.824;4.682;2022-09-03T21:08:57;23.30;99.90
37998;DHT22;24079;51.824;4.682;2022-09-03T21:11:51;23.40;99.90
37998;DHT22;24079;51.824;4.682;2022-09-03T21:14:24;23.40;99.90
37998;DHT22;24079;51.824;4.682;2022-09-03T21:22:45;23.30;99.90
37998;DHT22;24079;51.824;4.682;2022-09-03T21:25:22;23.30;99.90
37998;DHT22;24079;51.824;4.682;2022-09-03T21:27:54;23.30;99.90
37998;DHT22;24079;51.824;4.682;2022-09-03T21:30:22;23.30;99.90
37998;DHT22;24079;51.824;4.682;2022-09-03T21:33:12;23.40;99.90
37998;DHT22;24079;51.824;4.682;2022-09-03T21:36:11;23.30;99.90
37998;DHT22;24079;51.824;4.682;2022-09-03T21:38:39;23.30;99.90
37998;DHT22;24079;51.824;4.682;2022-09-03T21:41:30;23.30;99.90
37998;DHT22;24079;51.824;4.682;2022-09-03T21:44:04;23.30;99.90
37998;DHT22;24079;51.824;4.682;2022-09-03T21:49:00;23.20;99.90
37998;DHT22;24079;51.824;4.682;2022-09-03T21:51:32;23.10;99.90
37998;DHT22;24079;51.824;4.682;2022-09-03T21:54:00;23.10;99.90
37998;DHT22;24079;51.824;4.682;2022-09-03T21:56:53;23.20;99.90
37998;DHT22;24079;51.824;4.682;2022-09-03T22:02:25;23.10;99.90
37998;DHT22;24079;51.824;4.682;2022-09-03T22:04:53;23.00;99.90
37998;DHT22;24079;51.824;4.682;2022-09-03T22:12:35;23.00;99.90
37998;DHT22;24079;51.824;4.682;2022-09-03T22:15:05;23.00;99.90
37998;DHT22;24079;51.824;4.682;2022-09-03T22:17:38;22.90;99.90
37998;DHT22;24079;51.824;4.682;2022-09-03T22:20:10;22.90;99.90
37998;DHT22;24079;51.824;4.682;2022-09-03T22:22:54;22.90;99.90
37998;DHT22;24079;51.824;4.682;2022-09-03T22:33:37;22.70;99.90
37998;DHT22;24079;51.824;4.682;2022-09-03T22:36:17;22.60;99.90
37998;DHT22;24079;51.824;4.682;2022-09-03T22:52:16;22.30;99.90
37998;DHT22;24079;51.824;4.682;2022-09-03T22:55:00;22.30;99.90
37998;DHT22;24079;51.824;4.682;2022-09-03T22:57:33;22.20;99.90
37998;DHT22;24079;51.824;4.682;2022-09-03T23:00:04;22.20;99.90
37998;DHT22;24079;51.824;4.682;2022-09-03T23:02:31;22.10;99.90
37998;DHT22;24079;51.824;4.682;2022-09-03T23:07:44;22.10;99.90